createdAt,value
2023-03-13T00:03:29.067Z,8.72
2023-03-13T00:08:32.154Z,8.73
2023-03-13T00:13:37.148Z,8.76
2023-03-13T00:18:40.760Z,8.77
2023-03-13T00:23:44.610Z,8.81
2023-03-13T00:28:51.021Z,8.78
2023-03-13T00:40:10.991Z,8.85
2023-03-13T00:45:15.609Z,8.87
2023-03-13T00:50:18.887Z,8.89
2023-03-13T00:55:21.943Z,8.89
2023-03-13T01:00:26.796Z,8.89
2023-03-13T01:05:29.876Z,8.91
2023-03-13T01:10:36.259Z,8.96
2023-03-13T01:15:40.744Z,9.00
2023-03-13T01:20:43.658Z,9.04
2023-03-13T01:25:46.545Z,9.09
2023-03-13T01:30:57.010Z,9.12
2023-03-13T01:36:06.584Z,9.20
2023-03-13T01:41:12.252Z,9.23
2023-03-13T01:46:18.797Z,9.30
2023-03-13T01:51:33.730Z,9.35
2023-03-13T01:56:42.258Z,9.45
2023-03-13T02:01:48.729Z,9.51
2023-03-13T02:06:55.555Z,9.59
2023-03-13T02:12:05.661Z,9.64
2023-03-13T02:17:09.964Z,9.70
2023-03-13T02:22:22.240Z,9.76
2023-03-13T02:27:26.734Z,9.83
2023-03-13T02:32:32.380Z,9.91
2023-03-13T02:37:36.825Z,9.98
2023-03-13T02:42:46.446Z,10.07
2023-03-13T02:47:49.701Z,10.13
2023-03-13T02:52:56.960Z,10.21
2023-03-13T02:58:02.783Z,10.30
2023-03-13T03:03:10.324Z,10.37
2023-03-13T03:08:13.612Z,10.43
2023-03-13T03:13:18.464Z,10.48
2023-03-13T03:18:21.981Z,10.57
2023-03-13T03:23:25.351Z,10.65
2023-03-13T03:28:30.462Z,10.71
2023-03-13T03:33:35.595Z,10.74
2023-03-13T03:38:42.235Z,10.79
2023-03-13T03:43:49.332Z,10.90
2023-03-13T03:48:56.056Z,10.94
2023-03-13T03:53:59.217Z,11.02
2023-03-13T03:59:05.844Z,11.03
2023-03-13T04:04:21.309Z,11.07
2023-03-13T04:09:31.568Z,11.13
2023-03-13T04:14:37.176Z,11.17
2023-03-13T04:19:43.642Z,11.26
2023-03-13T04:24:46.739Z,11.35
2023-03-13T04:29:51.250Z,11.43
2023-03-13T04:35:21.260Z,11.51
2023-03-13T04:40:44.325Z,11.57
2023-03-13T04:46:07.088Z,11.62
2023-03-13T04:51:12.956Z,11.67
2023-03-13T04:56:42.233Z,11.71
2023-03-13T05:02:14.338Z,11.80
2023-03-13T05:07:35.756Z,11.81
2023-03-13T05:13:08.220Z,11.84
2023-03-13T05:18:32.936Z,11.71
2023-03-13T05:24:08.217Z,11.91
2023-03-13T05:29:34.040Z,11.94
2023-03-13T05:35:08.111Z,11.96
2023-03-13T05:40:21.388Z,11.91
2023-03-13T05:45:39.864Z,11.89
2023-03-13T05:51:03.023Z,11.91
2023-03-13T05:56:24.788Z,11.97
2023-03-13T06:01:46.470Z,11.99
2023-03-13T06:06:58.501Z,12.01
2023-03-13T06:12:01.919Z,12.06
2023-03-13T06:17:06.639Z,12.08
2023-03-13T06:22:11.042Z,12.13
2023-03-13T06:27:14.120Z,12.15
2023-03-13T06:32:17.264Z,12.19
2023-03-13T06:37:21.742Z,12.25
2023-03-13T06:42:24.810Z,12.26
2023-03-13T06:47:27.895Z,12.32
2023-03-13T06:52:43.153Z,12.24
2023-03-13T06:57:51.378Z,12.22
2023-03-13T07:02:54.677Z,12.19
2023-03-13T07:07:59.079Z,12.04
2023-03-13T07:13:04.088Z,12.12
2023-03-13T07:18:07.425Z,12.16
2023-03-13T07:23:11.791Z,12.15
2023-03-13T07:28:14.794Z,12.19
2023-03-13T07:33:18.044Z,12.16
2023-03-13T07:38:22.602Z,12.17
2023-03-13T07:43:26.686Z,12.22
2023-03-13T07:48:32.023Z,12.29
2023-03-13T07:53:36.686Z,12.41
2023-03-13T07:58:41.517Z,12.57
2023-03-13T08:03:45.596Z,12.65
2023-03-13T08:08:50.811Z,12.74
2023-03-13T08:13:54.833Z,12.69
2023-03-13T08:18:59.914Z,12.43
2023-03-13T08:24:07.080Z,12.55
2023-03-13T08:29:12.368Z,12.94
2023-03-13T08:34:16.348Z,13.24
2023-03-13T08:39:21.707Z,13.49
2023-03-13T08:44:24.944Z,13.56
2023-03-13T08:49:28.131Z,13.57
2023-03-13T08:54:32.733Z,13.65
2023-03-13T08:59:37.756Z,13.70
2023-03-13T09:04:41.179Z,13.88
2023-03-13T09:09:45.981Z,13.69
2023-03-13T09:14:49.537Z,13.57
2023-03-13T09:20:00.180Z,13.75
2023-03-13T09:25:06.266Z,14.17
2023-03-13T09:30:10.682Z,14.35
2023-03-13T09:35:13.661Z,14.33
2023-03-13T09:40:23.130Z,14.67
2023-03-13T09:45:34.209Z,14.61
2023-03-13T09:50:41.492Z,14.39
2023-03-13T09:55:48.391Z,14.60
2023-03-13T10:00:56.317Z,15.03
2023-03-13T10:06:03.054Z,15.12
2023-03-13T10:11:12.308Z,15.57
2023-03-13T10:16:19.563Z,15.87
2023-03-13T10:21:26.350Z,15.93
2023-03-13T10:26:33.431Z,15.82
2023-03-13T10:31:38.764Z,15.65
2023-03-13T10:36:43.899Z,15.73
2023-03-13T10:41:50.272Z,15.68
2023-03-13T10:46:53.806Z,15.60
2023-03-13T10:52:00.725Z,15.56
2023-03-13T10:57:29.322Z,15.49
2023-03-13T11:02:35.721Z,15.49
2023-03-13T11:07:40.615Z,15.69
2023-03-13T11:12:47.929Z,15.59
2023-03-13T11:17:56.522Z,15.65
2023-03-13T11:23:16.014Z,15.75
2023-03-13T11:28:34.918Z,15.86
2023-03-13T11:33:47.515Z,15.83
2023-03-13T11:39:05.082Z,15.87
2023-03-13T11:44:31.883Z,16.11
2023-03-13T11:49:58.949Z,15.92
2023-03-13T11:55:22.277Z,16.11
2023-03-13T12:00:33.016Z,16.51
2023-03-13T12:05:43.493Z,16.44
2023-03-13T12:10:52.769Z,16.58
2023-03-13T12:16:03.053Z,16.60
2023-03-13T12:21:13.382Z,16.65
2023-03-13T12:26:20.911Z,16.82
2023-03-13T12:31:30.356Z,17.40
2023-03-13T12:36:41.539Z,17.42
2023-03-13T12:41:45.801Z,17.28
2023-03-13T12:47:02.888Z,17.22
2023-03-13T12:52:43.739Z,17.44
2023-03-13T12:58:16.074Z,17.73
2023-03-13T13:03:31.755Z,17.62
2023-03-13T13:08:39.927Z,17.91
2023-03-13T13:13:43.065Z,17.65
2023-03-13T13:18:47.426Z,17.26
2023-03-13T13:23:54.247Z,17.01
2023-03-13T13:28:59.130Z,16.87
2023-03-13T13:34:05.751Z,16.85
2023-03-13T13:39:32.478Z,16.90
2023-03-13T13:45:20.667Z,16.78
2023-03-13T13:50:31.274Z,16.88
2023-03-13T13:55:44.562Z,16.87
2023-03-13T14:00:53.800Z,16.82
2023-03-13T14:06:03.541Z,16.76
2023-03-13T14:11:17.828Z,16.69
2023-03-13T14:16:25.840Z,16.79
2023-03-13T14:21:30.725Z,16.85
2023-03-13T14:26:34.076Z,16.90
2023-03-13T14:31:38.712Z,16.93
2023-03-13T14:36:51.213Z,16.83
2023-03-13T14:41:54.502Z,16.98
2023-03-13T14:46:59.710Z,16.99
2023-03-13T14:52:08.037Z,16.95
2023-03-13T14:57:16.618Z,16.83
2023-03-13T15:02:29.659Z,16.94
2023-03-13T15:07:40.797Z,16.98
2023-03-13T15:12:45.632Z,17.06
2023-03-13T15:17:48.794Z,17.13
2023-03-13T15:22:53.291Z,17.07
2023-03-13T15:27:56.472Z,16.97
2023-03-13T15:33:01.254Z,16.94
2023-03-13T15:38:13.564Z,16.88
2023-03-13T15:43:17.300Z,16.77
2023-03-13T15:48:22.375Z,16.78
2023-03-13T15:53:29.325Z,16.79
2023-03-13T15:58:32.779Z,16.68
2023-03-13T16:03:36.071Z,16.64
2023-03-13T16:08:40.688Z,16.55
2023-03-13T16:13:44.151Z,16.55
2023-03-13T16:18:47.535Z,16.42
2023-03-13T16:23:52.163Z,16.36
2023-03-13T16:28:56.466Z,16.28
2023-03-13T16:34:00.801Z,16.14
2023-03-13T16:39:10.205Z,16.08
2023-03-13T16:44:13.349Z,15.93
2023-03-13T16:49:16.797Z,15.78
2023-03-13T16:54:21.860Z,15.62
2023-03-13T16:59:25.747Z,15.41
2023-03-13T17:04:29.083Z,15.34
2023-03-13T17:09:33.711Z,15.15
2023-03-13T17:14:36.966Z,15.00
2023-03-13T17:19:40.162Z,14.75
2023-03-13T17:24:44.837Z,14.58
2023-03-13T17:29:47.971Z,14.31
2023-03-13T17:34:51.417Z,14.10
2023-03-13T17:39:56.123Z,13.91
2023-03-13T17:44:59.456Z,13.77
2023-03-13T17:50:04.720Z,13.62
2023-03-13T17:55:13.002Z,13.45
2023-03-13T18:00:23.697Z,13.34
2023-03-13T18:05:27.569Z,13.15
2023-03-13T18:10:32.507Z,13.01
2023-03-13T18:15:35.727Z,12.83
2023-03-13T18:20:38.943Z,12.63
2023-03-13T18:25:43.608Z,12.55
2023-03-13T18:30:49.084Z,12.43
2023-03-13T18:35:52.355Z,12.24
2023-03-13T18:40:57.125Z,12.15
2023-03-13T18:46:00.494Z,12.01
2023-03-13T18:51:05.024Z,11.92
2023-03-13T18:56:17.115Z,11.82
2023-03-13T19:01:22.677Z,11.78
2023-03-13T19:06:27.966Z,11.70
2023-03-13T19:11:33.739Z,11.58
2023-03-13T19:16:39.742Z,11.49
2023-03-13T19:21:45.870Z,11.39
2023-03-13T19:26:54.062Z,11.18
2023-03-13T19:31:59.697Z,11.23
2023-03-13T19:37:03.178Z,11.19
2023-03-13T19:42:08.317Z,11.12
2023-03-13T19:47:15.631Z,11.03
2023-03-13T19:52:19.258Z,11.00
2023-03-13T19:57:23.894Z,10.93
2023-03-13T20:02:27.263Z,10.86
2023-03-13T20:07:30.639Z,10.82
2023-03-13T20:12:35.420Z,10.73
2023-03-13T20:17:38.600Z,10.67
2023-03-13T20:22:44.297Z,10.48
2023-03-13T20:27:56.680Z,10.51
2023-03-13T20:33:00.164Z,10.60
2023-03-13T20:38:05.202Z,10.66
2023-03-13T20:43:09.979Z,10.78
2023-03-13T20:48:13.162Z,10.83
2023-03-13T20:53:16.198Z,10.83
2023-03-13T20:58:21.053Z,10.81
2023-03-13T21:03:24.190Z,10.89
2023-03-13T21:08:27.563Z,10.96
2023-03-13T21:13:31.979Z,10.98
2023-03-13T21:18:35.368Z,11.01
2023-03-13T21:23:39.445Z,11.08
2023-03-13T21:28:44.005Z,11.08
2023-03-13T21:33:48.075Z,11.08
2023-03-13T21:38:51.643Z,11.11
2023-03-13T21:43:56.477Z,11.04
2023-03-13T21:49:00.288Z,11.03
2023-03-13T21:54:04.271Z,10.91
2023-03-13T21:59:08.966Z,10.81
2023-03-13T22:04:13.112Z,10.64
2023-03-13T22:09:16.324Z,10.73
2023-03-13T22:14:22.483Z,10.65
2023-03-13T22:19:25.574Z,10.69
2023-03-13T22:24:28.729Z,10.74
2023-03-13T22:29:34.734Z,10.79
2023-03-13T22:34:38.268Z,10.86
2023-03-13T22:39:41.632Z,10.81
2023-03-13T22:44:46.324Z,10.85
2023-03-13T22:49:50.561Z,10.99
2023-03-13T22:54:53.657Z,11.05
2023-03-13T22:59:59.221Z,11.16
2023-03-13T23:05:04.758Z,11.32
2023-03-13T23:10:12.285Z,11.42
2023-03-13T23:15:16.690Z,11.41
2023-03-13T23:20:20.051Z,11.27
2023-03-13T23:25:24.006Z,11.14
2023-03-13T23:30:28.618Z,10.98
2023-03-13T23:35:31.845Z,10.87
2023-03-13T23:40:35.141Z,10.98
2023-03-13T23:45:39.738Z,10.91
2023-03-13T23:50:42.829Z,10.93
2023-03-13T23:55:45.927Z,10.94
